createdAt,value
2018-07-09T00:00:49.190Z,88.93
2018-07-09T00:01:50.589Z,88.35
2018-07-09T00:02:51.969Z,88.55
2018-07-09T00:03:53.354Z,88.65
2018-07-09T00:04:54.754Z,88.35
2018-07-09T00:05:56.127Z,87.88
2018-07-09T00:06:57.519Z,88.35
2018-07-09T00:07:58.899Z,88.35
2018-07-09T00:09:00.297Z,88.45
2018-07-09T00:10:01.677Z,88.35
2018-07-09T00:11:03.077Z,87.78
2018-07-09T00:12:04.477Z,88.45
2018-07-09T00:13:05.856Z,87.68
2018-07-09T00:14:07.246Z,87.88
2018-07-09T00:15:08.633Z,87.88
2018-07-09T00:16:10.030Z,87.98
2018-07-09T00:17:11.401Z,87.98
2018-07-09T00:18:12.795Z,87.88
2018-07-09T00:19:14.176Z,87.88
2018-07-09T00:20:15.574Z,87.78
2018-07-09T00:21:16.958Z,87.98
2018-07-09T00:22:18.343Z,87.98
2018-07-09T00:23:19.729Z,87.88
2018-07-09T00:24:21.118Z,87.98
2018-07-09T00:25:22.511Z,87.88
2018-07-09T00:26:23.880Z,88.35
2018-07-09T00:27:25.274Z,88.17
2018-07-09T00:28:26.667Z,88.26
2018-07-09T00:29:28.044Z,87.88
2018-07-09T00:30:29.426Z,88.45
2018-07-09T00:31:30.821Z,88.07
2018-07-09T00:32:34.013Z,88.45
2018-07-09T00:33:34.415Z,88.45
2018-07-09T00:34:35.806Z,88.26
2018-07-09T00:35:37.195Z,88.55
2018-07-09T00:36:38.585Z,88.74
2018-07-09T00:37:39.979Z,88.60
2018-07-09T00:38:41.361Z,88.65
2018-07-09T00:39:43.621Z,88.93
2018-07-09T00:40:45.018Z,88.45
2018-07-09T00:41:46.395Z,88.26
2018-07-09T00:42:47.773Z,88.45
2018-07-09T00:43:49.163Z,88.65
2018-07-09T00:44:50.558Z,87.98
2018-07-09T00:45:51.938Z,88.35
2018-07-09T00:46:53.317Z,88.26
2018-07-09T00:47:54.709Z,88.55
2018-07-09T00:48:56.087Z,88.55
2018-07-09T00:49:57.472Z,88.31
2018-07-09T00:50:58.869Z,88.41
2018-07-09T00:52:00.238Z,88.26
2018-07-09T00:53:01.617Z,88.31
2018-07-09T00:54:03.012Z,88.70
2018-07-09T00:55:04.392Z,88.41
2018-07-09T00:56:05.782Z,88.70
2018-07-09T00:57:07.168Z,89.18
2018-07-09T00:58:08.560Z,89.47
2018-07-09T00:59:09.952Z,89.18
2018-07-09T01:00:11.340Z,89.18
2018-07-09T01:01:12.727Z,89.27
2018-07-09T01:02:14.119Z,89.65
2018-07-09T01:03:15.507Z,89.47
2018-07-09T01:04:16.901Z,89.47
2018-07-09T01:05:18.285Z,89.75
2018-07-09T01:06:19.670Z,89.47
2018-07-09T01:07:21.058Z,89.47
2018-07-09T01:08:22.457Z,89.65
2018-07-09T01:09:23.837Z,89.56
2018-07-09T01:10:25.224Z,89.37
2018-07-09T01:11:26.604Z,89.75
2018-07-09T01:12:27.988Z,89.65
2018-07-09T01:13:29.366Z,90.04
2018-07-09T01:14:30.757Z,89.56
2018-07-09T01:15:32.152Z,89.94
2018-07-09T01:16:33.539Z,90.14
2018-07-09T01:17:34.923Z,89.65
2018-07-09T01:18:36.312Z,89.56
2018-07-09T01:19:37.693Z,89.75
2018-07-09T01:20:39.076Z,90.04
2018-07-09T01:21:40.462Z,90.04
2018-07-09T01:22:41.844Z,89.65
2018-07-09T01:23:43.244Z,90.61
2018-07-09T01:24:44.626Z,90.81
2018-07-09T01:25:46.009Z,90.52
2018-07-09T01:26:47.393Z,90.42
2018-07-09T01:27:48.779Z,90.42
2018-07-09T01:28:50.158Z,90.52
2018-07-09T01:29:51.546Z,91.09
2018-07-09T01:30:52.933Z,91.19
2018-07-09T01:31:54.328Z,91.00
2018-07-09T01:32:55.706Z,91.67
2018-07-09T01:33:57.091Z,91.19
2018-07-09T01:34:58.473Z,91.67
2018-07-09T01:35:59.863Z,91.67
2018-07-09T01:37:01.251Z,91.96
2018-07-09T01:38:02.635Z,91.86
2018-07-09T01:39:04.029Z,91.96
2018-07-09T01:40:05.417Z,92.24
2018-07-09T01:41:06.815Z,91.67
2018-07-09T01:42:08.198Z,91.96
2018-07-09T01:43:09.584Z,92.05
2018-07-09T01:44:10.971Z,92.34
2018-07-09T01:45:12.362Z,92.63
2018-07-09T01:46:13.758Z,92.72
2018-07-09T01:47:15.148Z,92.77
2018-07-09T01:48:16.532Z,92.91
2018-07-09T01:49:17.918Z,92.72
2018-07-09T01:50:19.304Z,92.24
2018-07-09T01:51:20.702Z,92.49
2018-07-09T01:52:22.088Z,92.58
2018-07-09T01:53:23.470Z,92.72
2018-07-09T01:54:24.864Z,93.06
2018-07-09T01:55:26.240Z,93.68
2018-07-09T01:56:27.635Z,93.40
2018-07-09T01:57:29.012Z,93.01
2018-07-09T01:58:30.401Z,92.97
2018-07-09T01:59:31.784Z,93.54
2018-07-09T02:00:33.173Z,93.26
2018-07-09T02:01:34.563Z,93.35
2018-07-09T02:02:35.941Z,93.54
2018-07-09T02:03:37.335Z,93.54
2018-07-09T02:04:38.721Z,93.44
2018-07-09T02:05:40.112Z,93.06
2018-07-09T02:06:41.495Z,93.26
2018-07-09T02:07:42.877Z,93.35
2018-07-09T02:08:44.272Z,93.93
2018-07-09T02:09:45.660Z,93.26
2018-07-09T02:10:47.038Z,93.44
2018-07-09T02:11:48.425Z,93.44
2018-07-09T02:12:49.818Z,92.97
2018-07-09T02:13:51.202Z,92.97
2018-07-09T02:14:52.597Z,93.44
2018-07-09T02:15:53.982Z,93.16
2018-07-09T02:16:55.360Z,93.35
2018-07-09T02:17:56.753Z,93.35
2018-07-09T02:18:58.143Z,93.26
2018-07-09T02:19:59.517Z,93.06
2018-07-09T02:21:00.909Z,93.26
2018-07-09T02:22:02.294Z,93.16
2018-07-09T02:23:03.671Z,93.26
2018-07-09T02:24:05.057Z,93.16
2018-07-09T02:25:06.447Z,93.35
2018-07-09T02:26:07.835Z,93.26
2018-07-09T02:27:09.227Z,93.06
2018-07-09T02:28:10.609Z,93.06
2018-07-09T02:29:11.997Z,93.16
2018-07-09T02:30:13.383Z,93.16
2018-07-09T02:31:14.765Z,93.44
2018-07-09T02:32:16.158Z,93.54
2018-07-09T02:33:17.548Z,92.87
2018-07-09T02:34:18.940Z,93.54
2018-07-09T02:35:20.331Z,93.35
2018-07-09T02:36:21.713Z,93.06
2018-07-09T02:37:23.103Z,93.44
2018-07-09T02:38:24.484Z,93.44
2018-07-09T02:39:25.878Z,93.44
2018-07-09T02:40:27.274Z,93.44
2018-07-09T02:41:28.653Z,93.44
2018-07-09T02:42:30.057Z,93.54
2018-07-09T02:43:31.425Z,92.97
2018-07-09T02:44:32.815Z,93.06
2018-07-09T02:45:34.200Z,93.06
2018-07-09T02:46:35.585Z,93.06
2018-07-09T02:47:36.974Z,92.87
2018-07-09T02:48:38.360Z,93.16
2018-07-09T02:49:39.765Z,92.77
2018-07-09T02:50:41.137Z,92.30
2018-07-09T02:51:43.386Z,92.58
2018-07-09T02:52:44.775Z,92.58
2018-07-09T02:53:46.159Z,92.58
2018-07-09T02:54:47.553Z,92.58
2018-07-09T02:55:48.937Z,92.77
2018-07-09T02:56:50.321Z,92.77
2018-07-09T02:57:51.703Z,92.30
2018-07-09T02:58:53.092Z,92.15
2018-07-09T02:59:54.484Z,92.97
2018-07-09T03:00:55.901Z,92.87
2018-07-09T03:01:58.124Z,92.87
2018-07-09T03:02:59.513Z,92.87
2018-07-09T03:04:00.912Z,93.26
2018-07-09T03:05:02.298Z,93.26
2018-07-09T03:06:03.689Z,93.35
2018-07-09T03:07:05.083Z,93.16
2018-07-09T03:08:06.471Z,93.26
2018-07-09T03:09:07.857Z,92.97
2018-07-09T03:10:09.251Z,93.98
2018-07-09T03:11:10.641Z,93.06
2018-07-09T03:12:12.029Z,93.06
2018-07-09T03:13:13.415Z,93.63
2018-07-09T03:14:14.809Z,93.54
2018-07-09T03:15:16.217Z,93.54
2018-07-09T03:16:17.588Z,93.26
2018-07-09T03:17:18.979Z,93.26
2018-07-09T03:18:20.368Z,93.16
2018-07-09T03:19:21.757Z,94.02
2018-07-09T03:20:23.150Z,93.93
2018-07-09T03:21:24.534Z,94.02
2018-07-09T03:22:25.922Z,94.12
2018-07-09T03:23:27.311Z,93.93
2018-07-09T03:24:28.702Z,94.02
2018-07-09T03:25:30.089Z,93.54
2018-07-09T03:26:31.480Z,93.35
2018-07-09T03:27:32.861Z,93.35
2018-07-09T03:28:34.256Z,93.26
2018-07-09T03:29:35.680Z,93.63
2018-07-09T03:30:37.039Z,92.87
2018-07-09T03:31:38.423Z,92.87
2018-07-09T03:32:39.820Z,92.97
2018-07-09T03:33:41.212Z,93.06
2018-07-09T03:34:42.600Z,93.06
2018-07-09T03:35:43.982Z,93.06
2018-07-09T03:36:45.379Z,93.06
2018-07-09T03:37:46.767Z,92.87
2018-07-09T03:38:48.155Z,93.26
2018-07-09T03:39:49.537Z,93.44
2018-07-09T03:40:50.933Z,93.54
2018-07-09T03:41:52.319Z,93.44
2018-07-09T03:42:53.705Z,93.35
2018-07-09T03:43:55.097Z,93.06
2018-07-09T03:44:56.485Z,92.87
2018-07-09T03:45:57.864Z,92.58
2018-07-09T03:46:59.263Z,92.49
2018-07-09T03:48:00.649Z,92.82
2018-07-09T03:49:02.029Z,92.82
2018-07-09T03:50:03.421Z,92.44
2018-07-09T03:51:04.815Z,91.96
2018-07-09T03:52:06.190Z,92.24
2018-07-09T03:53:07.584Z,91.77
2018-07-09T03:54:08.971Z,91.67
2018-07-09T03:55:10.352Z,91.28
2018-07-09T03:56:11.746Z,91.19
2018-07-09T03:57:13.139Z,90.90
2018-07-09T03:58:14.530Z,90.81
2018-07-09T03:59:15.923Z,90.52
2018-07-09T04:00:17.315Z,90.14
2018-07-09T04:01:18.703Z,90.14
2018-07-09T04:02:20.173Z,90.14
2018-07-09T04:03:21.440Z,90.04
2018-07-09T04:04:22.827Z,89.65
2018-07-09T04:05:24.222Z,90.18
2018-07-09T04:06:25.616Z,89.89
2018-07-09T04:07:27.007Z,89.51
2018-07-09T04:08:28.399Z,89.41
2018-07-09T04:09:29.790Z,89.41
2018-07-09T04:10:31.171Z,89.12
2018-07-09T04:11:32.577Z,89.32
2018-07-09T04:12:33.967Z,89.12
2018-07-09T04:13:35.360Z,88.84
2018-07-09T04:14:36.751Z,88.84
2018-07-09T04:15:38.135Z,88.45
2018-07-09T04:16:39.530Z,88.65
2018-07-09T04:17:40.918Z,88.07
2018-07-09T04:18:42.307Z,87.59
2018-07-09T04:19:43.697Z,87.49
2018-07-09T04:20:45.095Z,87.40
2018-07-09T04:21:46.481Z,87.88
2018-07-09T04:22:47.863Z,87.68
2018-07-09T04:23:49.266Z,87.21
2018-07-09T04:24:50.657Z,87.11
2018-07-09T04:25:52.043Z,87.30
2018-07-09T04:26:53.428Z,87.44
2018-07-09T04:27:54.822Z,86.87
2018-07-09T04:28:56.218Z,86.58
2018-07-09T04:29:57.600Z,86.68
2018-07-09T04:30:59.000Z,86.82
2018-07-09T04:32:01.054Z,86.96
2018-07-09T04:33:02.441Z,86.77
2018-07-09T04:34:03.839Z,86.96
2018-07-09T04:35:05.228Z,86.77
2018-07-09T04:36:07.478Z,86.48
2018-07-09T04:37:08.863Z,85.71
2018-07-09T04:38:10.260Z,85.71
2018-07-09T04:39:11.637Z,86.00
2018-07-09T04:40:13.037Z,85.24
2018-07-09T04:41:14.421Z,85.42
2018-07-09T04:42:15.817Z,85.14
2018-07-09T04:43:17.223Z,84.95
2018-07-09T04:44:18.591Z,84.37
2018-07-09T04:45:19.977Z,84.47
2018-07-09T04:46:21.366Z,84.03
2018-07-09T04:47:22.755Z,84.37
2018-07-09T04:48:24.149Z,84.47
2018-07-09T04:49:25.547Z,84.66
2018-07-09T04:50:26.936Z,84.12
2018-07-09T04:51:28.330Z,83.54
2018-07-09T04:52:29.732Z,82.92
2018-07-09T04:53:31.139Z,81.86
2018-07-09T04:54:32.510Z,81.04
2018-07-09T04:55:33.908Z,79.40
2018-07-09T04:56:35.296Z,78.28
2018-07-09T04:57:36.692Z,76.50
2018-07-09T04:58:38.081Z,74.90
2018-07-09T04:59:39.476Z,73.20
2018-07-09T05:00:40.863Z,72.72
2018-07-09T05:01:42.261Z,72.33
2018-07-09T05:02:43.654Z,72.63
2018-07-09T05:03:45.051Z,72.97
2018-07-09T05:04:46.437Z,73.46
2018-07-09T05:05:47.825Z,74.29
2018-07-09T05:06:49.217Z,74.19
2018-07-09T05:07:50.605Z,75.15
2018-07-09T05:08:51.993Z,75.15
2018-07-09T05:09:53.389Z,75.24
2018-07-09T05:10:54.785Z,75.24
2018-07-09T05:11:56.183Z,74.96
2018-07-09T05:12:57.590Z,74.51
2018-07-09T05:13:58.978Z,73.01
2018-07-09T05:15:00.376Z,72.14
2018-07-09T05:16:01.770Z,71.18
2018-07-09T05:17:03.163Z,70.98
2018-07-09T05:18:04.551Z,71.18
2018-07-09T05:19:05.944Z,71.28
2018-07-09T05:20:07.333Z,71.43
2018-07-09T05:21:08.728Z,72.01
2018-07-09T05:22:10.122Z,73.22
2018-07-09T05:23:11.522Z,73.61
2018-07-09T05:24:12.918Z,74.29
2018-07-09T05:25:14.306Z,74.34
2018-07-09T05:26:15.711Z,75.31
2018-07-09T05:27:17.105Z,76.17
2018-07-09T05:28:18.501Z,76.90
2018-07-09T05:29:19.902Z,77.00
2018-07-09T05:30:21.290Z,76.61
2018-07-09T05:31:22.710Z,76.52
2018-07-09T05:32:24.090Z,76.81
2018-07-09T05:33:25.487Z,75.98
2018-07-09T05:34:26.883Z,75.40
2018-07-09T05:35:28.266Z,74.73
2018-07-09T05:36:29.667Z,74.48
2018-07-09T05:37:31.065Z,74.29
2018-07-09T05:38:32.455Z,72.11
2018-07-09T05:39:33.859Z,70.92
2018-07-09T05:40:35.252Z,68.16
2018-07-09T05:41:36.644Z,65.56
2018-07-09T05:42:38.039Z,63.18
2018-07-09T05:43:39.437Z,61.98
2018-07-09T05:44:40.825Z,59.69
2018-07-09T05:45:42.220Z,58.56
2018-07-09T05:46:43.622Z,56.77
2018-07-09T05:47:45.038Z,54.38
2018-07-09T05:48:46.415Z,53.27
2018-07-09T05:49:47.804Z,51.84
2018-07-09T05:50:49.206Z,50.99
2018-07-09T05:51:50.601Z,49.63
2018-07-09T05:52:52.000Z,48.97
2018-07-09T05:53:53.396Z,49.24
2018-07-09T05:54:54.801Z,49.15
2018-07-09T05:55:56.199Z,49.90
2018-07-09T05:56:57.596Z,49.80
2018-07-09T05:57:58.993Z,49.71
2018-07-09T05:59:00.439Z,50.02
2018-07-09T06:00:01.761Z,48.22
2018-07-09T06:01:03.157Z,46.98
2018-07-09T06:02:04.557Z,46.59
2018-07-09T06:03:05.959Z,47.32
2018-07-09T06:04:07.361Z,48.75
2018-07-09T06:05:08.763Z,48.37
2018-07-09T06:06:10.161Z,48.83
2018-07-09T06:07:11.555Z,49.90
2018-07-09T06:08:12.966Z,49.77
2018-07-09T06:09:14.359Z,49.58
2018-07-09T06:10:15.761Z,50.65
2018-07-09T06:11:17.261Z,51.37
2018-07-09T06:12:18.564Z,52.12
2018-07-09T06:13:19.969Z,53.09
2018-07-09T06:14:21.380Z,54.43
2018-07-09T06:15:22.784Z,54.39
2018-07-09T06:16:24.185Z,55.07
2018-07-09T06:17:25.590Z,55.70
2018-07-09T06:18:26.992Z,56.28
2018-07-09T06:19:28.489Z,56.18
2018-07-09T06:20:29.786Z,55.99
2018-07-09T06:21:31.192Z,56.18
2018-07-09T06:22:32.600Z,56.50
2018-07-09T06:23:33.998Z,55.92
2018-07-09T06:24:35.410Z,55.82
2018-07-09T06:25:36.820Z,55.17
2018-07-09T06:26:38.222Z,54.69
2018-07-09T06:27:39.624Z,54.59
2018-07-09T06:28:41.023Z,54.79
2018-07-09T06:29:42.422Z,54.79
2018-07-09T06:30:43.826Z,54.98
2018-07-09T06:31:45.220Z,54.98
2018-07-09T06:32:46.625Z,55.07
2018-07-09T06:33:48.029Z,55.07
2018-07-09T06:34:49.431Z,55.17
2018-07-09T06:35:50.841Z,54.21
2018-07-09T06:36:52.230Z,54.59
2018-07-09T06:37:53.633Z,54.69
2018-07-09T06:38:55.033Z,54.43
2018-07-09T06:39:56.431Z,54.52
2018-07-09T06:40:57.840Z,54.11
2018-07-09T06:41:59.238Z,54.39
2018-07-09T06:43:00.650Z,54.79
2018-07-09T06:44:02.044Z,55.27
2018-07-09T06:45:03.446Z,55.85
2018-07-09T06:46:04.854Z,55.85
2018-07-09T06:47:06.254Z,55.92
2018-07-09T06:48:07.650Z,56.40
2018-07-09T06:49:09.043Z,56.21
2018-07-09T06:50:10.504Z,55.73
2018-07-09T06:51:11.867Z,56.50
2018-07-09T06:52:13.276Z,56.60
2018-07-09T06:53:14.658Z,56.88
2018-07-09T06:54:16.067Z,56.86
2018-07-09T06:55:17.468Z,57.15
2018-07-09T06:56:18.858Z,57.34
2018-07-09T06:57:20.267Z,56.76
2018-07-09T06:58:21.659Z,55.79
2018-07-09T06:59:23.062Z,55.79
2018-07-09T07:00:24.463Z,56.47
2018-07-09T07:01:25.870Z,56.67
2018-07-09T07:02:27.350Z,57.34
2018-07-09T07:03:28.673Z,57.73
2018-07-09T07:04:30.079Z,58.12
2018-07-09T07:05:31.479Z,57.79
2018-07-09T07:06:32.875Z,57.92
2018-07-09T07:07:34.287Z,57.92
2018-07-09T07:08:35.713Z,58.31
2018-07-09T07:09:37.082Z,58.02
2018-07-09T07:10:38.487Z,58.02
2018-07-09T07:11:40.735Z,57.99
2018-07-09T07:12:42.137Z,59.08
2018-07-09T07:13:43.540Z,58.40
2018-07-09T07:14:44.932Z,58.57
2018-07-09T07:15:46.840Z,58.67
2018-07-09T07:16:48.538Z,58.18
2018-07-09T07:17:51.162Z,58.57
2018-07-09T07:18:52.549Z,58.37
2018-07-09T07:19:53.947Z,59.51
2018-07-09T07:20:55.503Z,59.15
2018-07-09T07:21:56.997Z,58.57
2018-07-09T07:22:58.390Z,58.47
2018-07-09T07:23:59.787Z,58.70
2018-07-09T07:25:01.189Z,58.21
2018-07-09T07:26:02.583Z,58.02
2018-07-09T07:27:03.976Z,57.44
2018-07-09T07:28:05.381Z,58.40
2018-07-09T07:29:06.780Z,57.63
2018-07-09T07:30:08.177Z,58.31
2018-07-09T07:31:09.579Z,57.82
2018-07-09T07:32:11.647Z,57.44
2018-07-09T07:33:13.063Z,57.73
2018-07-09T07:34:14.545Z,58.12
2018-07-09T07:35:15.945Z,58.40
2018-07-09T07:36:17.351Z,59.34
2018-07-09T07:37:18.750Z,59.51
2018-07-09T07:38:20.154Z,60.09
2018-07-09T07:39:21.603Z,59.70
2018-07-09T07:40:22.950Z,59.70
2018-07-09T07:41:24.346Z,60.57
2018-07-09T07:42:26.586Z,60.25
2018-07-09T07:43:27.984Z,60.44
2018-07-09T07:44:29.390Z,60.93
2018-07-09T07:45:30.792Z,60.64
2018-07-09T07:46:34.858Z,61.22
2018-07-09T07:47:36.248Z,61.09
2018-07-09T07:48:39.061Z,61.67
2018-07-09T07:49:40.463Z,61.47
2018-07-09T07:50:42.729Z,62.25
2018-07-09T07:51:46.276Z,62.15
2018-07-09T07:52:50.325Z,62.63
2018-07-09T07:53:52.897Z,62.73
2018-07-09T07:54:55.217Z,62.79
2018-07-09T07:55:56.593Z,62.89
2018-07-09T07:57:00.631Z,63.31
2018-07-09T07:58:02.029Z,62.92
2018-07-09T07:59:03.432Z,62.92
2018-07-09T08:00:05.398Z,63.47
2018-07-09T08:01:06.803Z,63.37
2018-07-09T08:02:11.434Z,63.76
2018-07-09T08:03:16.929Z,63.76
2018-07-09T08:04:19.993Z,63.18
2018-07-09T08:05:25.221Z,64.05
2018-07-09T08:06:28.373Z,64.24
2018-07-09T08:07:33.643Z,64.53
2018-07-09T08:08:36.076Z,64.89
2018-07-09T08:09:41.362Z,64.50
2018-07-09T08:10:45.938Z,65.08
2018-07-09T08:11:49.259Z,64.98
2018-07-09T08:13:13.740Z,65.17
2018-07-09T08:13:57.596Z,65.17
2018-07-09T08:14:58.988Z,65.56
2018-07-09T08:16:00.378Z,65.75
2018-07-09T08:17:03.233Z,66.62
2018-07-09T08:18:05.463Z,66.62
2018-07-09T08:19:06.858Z,66.33
2018-07-09T08:20:08.332Z,65.69
2018-07-09T08:21:09.743Z,65.50
2018-07-09T08:22:11.130Z,64.43
2018-07-09T08:23:12.527Z,64.18
2018-07-09T08:24:13.919Z,64.18
2018-07-09T08:25:15.393Z,63.98
2018-07-09T08:26:16.715Z,64.28
2018-07-09T08:27:18.107Z,63.60
2018-07-09T08:28:19.499Z,64.08
2018-07-09T08:29:20.897Z,63.60
2018-07-09T08:30:22.279Z,63.31
2018-07-09T08:31:23.832Z,63.98
2018-07-09T08:32:25.090Z,63.50
2018-07-09T08:33:26.487Z,63.70
2018-07-09T08:34:27.881Z,63.50
2018-07-09T08:35:29.279Z,63.70
2018-07-09T08:36:30.785Z,64.18
2018-07-09T08:37:32.172Z,64.95
2018-07-09T08:38:33.559Z,65.20
2018-07-09T08:39:35.595Z,65.24
2018-07-09T08:40:36.997Z,65.20
2018-07-09T08:41:38.391Z,65.78
2018-07-09T08:42:39.790Z,66.08
2018-07-09T08:43:41.185Z,66.14
2018-07-09T08:44:42.593Z,66.33
2018-07-09T08:45:43.995Z,66.14
2018-07-09T08:46:45.392Z,66.49
2018-07-09T08:47:46.798Z,66.91
2018-07-09T08:48:48.192Z,67.16
2018-07-09T08:49:49.582Z,67.94
2018-07-09T08:50:50.984Z,68.13
2018-07-09T08:51:52.374Z,68.71
2018-07-09T08:52:53.771Z,68.99
2018-07-09T08:53:55.159Z,69.38
2018-07-09T08:54:56.557Z,69.06
2018-07-09T08:56:01.315Z,69.64
2018-07-09T08:57:02.707Z,70.41
2018-07-09T08:58:04.089Z,70.98
2018-07-09T08:59:05.492Z,71.08
2018-07-09T09:00:06.879Z,71.53
2018-07-09T09:01:08.269Z,71.34
2018-07-09T09:02:09.659Z,71.34
2018-07-09T09:03:11.047Z,71.81
2018-07-09T09:04:13.394Z,72.20
2018-07-09T09:05:14.785Z,72.36
2018-07-09T09:06:16.173Z,73.13
2018-07-09T09:07:17.576Z,73.32
2018-07-09T09:08:18.972Z,73.51
2018-07-09T09:09:20.391Z,74.09
2018-07-09T09:10:21.833Z,74.09
2018-07-09T09:11:23.184Z,74.76
2018-07-09T09:12:24.576Z,74.67
2018-07-09T09:13:25.972Z,74.48
2018-07-09T09:14:27.360Z,74.82
2018-07-09T09:15:28.756Z,74.76
2018-07-09T09:16:30.204Z,74.44
2018-07-09T09:17:31.542Z,74.57
2018-07-09T09:18:32.935Z,74.34
2018-07-09T09:19:34.289Z,74.63
2018-07-09T09:20:35.680Z,74.54
2018-07-09T09:21:37.064Z,74.54
2018-07-09T09:22:38.460Z,74.67
2018-07-09T09:23:39.863Z,75.02
2018-07-09T09:24:41.242Z,74.29
2018-07-09T09:25:42.660Z,74.29
2018-07-09T09:26:44.054Z,73.99
2018-07-09T09:27:45.449Z,73.51
2018-07-09T09:28:46.840Z,72.94
2018-07-09T09:29:48.257Z,73.03
2018-07-09T09:30:49.647Z,72.94
2018-07-09T09:31:51.035Z,72.94
2018-07-09T09:32:52.441Z,72.55
2018-07-09T09:33:54.431Z,72.36
2018-07-09T09:34:55.832Z,72.65
2018-07-09T09:35:57.230Z,73.22
2018-07-09T09:36:58.614Z,73.47
2018-07-09T09:38:00.015Z,73.96
2018-07-09T09:39:02.242Z,74.15
2018-07-09T09:40:02.746Z,74.73
2018-07-09T09:41:04.131Z,74.63
2018-07-09T09:42:05.529Z,74.44
2018-07-09T09:43:06.988Z,74.44
2018-07-09T09:44:08.318Z,74.63
2018-07-09T09:45:09.701Z,74.44
2018-07-09T09:46:11.102Z,75.11
2018-07-09T09:47:12.490Z,74.92
2018-07-09T09:48:13.890Z,74.63
2018-07-09T09:49:15.315Z,74.92
2018-07-09T09:50:16.687Z,75.11
2018-07-09T09:51:18.080Z,75.37
2018-07-09T09:52:19.479Z,75.17
2018-07-09T09:53:20.873Z,75.46
2018-07-09T09:54:22.269Z,75.94
2018-07-09T09:55:23.663Z,76.36
2018-07-09T09:56:25.061Z,76.36
2018-07-09T09:57:26.450Z,76.26
2018-07-09T09:58:27.848Z,76.23
2018-07-09T09:59:29.241Z,76.17
2018-07-09T10:00:30.660Z,76.26
2018-07-09T10:01:32.035Z,76.46
2018-07-09T10:02:33.434Z,76.36
2018-07-09T10:03:34.826Z,76.26
2018-07-09T10:04:36.222Z,75.98
2018-07-09T10:05:37.620Z,75.98
2018-07-09T10:06:39.011Z,76.36
2018-07-09T10:07:40.424Z,76.32
2018-07-09T10:08:41.864Z,76.36
2018-07-09T10:09:43.201Z,76.32
2018-07-09T10:10:44.600Z,76.17
2018-07-09T10:11:45.990Z,76.71
2018-07-09T10:12:47.410Z,76.84
2018-07-09T10:13:48.801Z,77.61
2018-07-09T10:14:50.201Z,76.90
2018-07-09T10:15:51.594Z,77.13
2018-07-09T10:16:53.044Z,76.75
2018-07-09T10:17:54.383Z,76.17
2018-07-09T10:18:55.774Z,76.26
2018-07-09T10:19:57.172Z,75.59
2018-07-09T10:20:58.573Z,75.21
2018-07-09T10:21:59.973Z,75.98
2018-07-09T10:23:01.387Z,75.31
2018-07-09T10:24:02.793Z,75.05
2018-07-09T10:25:04.143Z,74.73
2018-07-09T10:26:05.534Z,74.44
2018-07-09T10:27:06.927Z,74.34
2018-07-09T10:28:08.317Z,74.54
2018-07-09T10:29:09.711Z,74.82
2018-07-09T10:30:11.109Z,75.02
2018-07-09T10:31:12.494Z,75.79
2018-07-09T10:32:13.893Z,75.69
2018-07-09T10:33:15.279Z,75.21
2018-07-09T10:34:16.676Z,75.59
2018-07-09T10:35:18.078Z,75.59
2018-07-09T10:36:19.487Z,75.21
2018-07-09T10:37:20.887Z,75.88
2018-07-09T10:38:22.281Z,75.88
2018-07-09T10:39:23.662Z,75.11
2018-07-09T10:40:25.062Z,74.86
2018-07-09T10:41:26.454Z,74.34
2018-07-09T10:42:27.848Z,74.92
2018-07-09T10:43:29.234Z,74.63
2018-07-09T10:44:30.627Z,75.11
2018-07-09T10:45:32.028Z,74.67
2018-07-09T10:46:33.413Z,74.48
2018-07-09T10:47:34.807Z,74.76
2018-07-09T10:48:36.200Z,74.48
2018-07-09T10:49:37.592Z,74.96
2018-07-09T10:50:38.984Z,74.48
2018-07-09T10:51:40.377Z,74.76
2018-07-09T10:52:41.776Z,74.57
2018-07-09T10:53:43.167Z,74.67
2018-07-09T10:54:44.560Z,74.57
2018-07-09T10:55:45.942Z,74.19
2018-07-09T10:56:47.339Z,74.38
2018-07-09T10:57:48.732Z,74.76
2018-07-09T10:58:50.122Z,74.48
2018-07-09T10:59:51.516Z,74.38
2018-07-09T11:00:52.945Z,74.38
2018-07-09T11:01:54.256Z,74.19
2018-07-09T11:02:55.652Z,73.99
2018-07-09T11:03:57.052Z,74.09
2018-07-09T11:04:58.442Z,73.61
2018-07-09T11:05:59.836Z,73.74
2018-07-09T11:07:01.241Z,73.74
2018-07-09T11:08:02.622Z,73.46
2018-07-09T11:09:04.011Z,73.03
2018-07-09T11:10:05.415Z,73.07
2018-07-09T11:11:06.804Z,73.26
2018-07-09T11:12:08.199Z,73.01
2018-07-09T11:13:09.585Z,72.81
2018-07-09T11:14:10.991Z,72.24
2018-07-09T11:15:12.377Z,71.50
2018-07-09T11:16:13.784Z,70.73
2018-07-09T11:17:15.177Z,69.67
2018-07-09T11:18:16.571Z,69.51
2018-07-09T11:19:17.968Z,68.74
2018-07-09T11:20:20.333Z,68.74
2018-07-09T11:21:21.725Z,68.26
2018-07-09T11:22:23.117Z,67.10
2018-07-09T11:23:24.519Z,67.30
2018-07-09T11:24:25.901Z,67.68
2018-07-09T11:25:27.311Z,66.62
2018-07-09T11:26:28.701Z,66.33
2018-07-09T11:27:30.089Z,66.72
2018-07-09T11:28:31.477Z,66.82
2018-07-09T11:29:33.436Z,67.40
2018-07-09T11:30:34.838Z,67.20
2018-07-09T11:31:36.227Z,67.00
2018-07-09T11:32:37.620Z,67.30
2018-07-09T11:33:39.013Z,66.66
2018-07-09T11:34:40.421Z,67.07
2018-07-09T11:35:41.806Z,66.59
2018-07-09T11:36:43.215Z,65.53
2018-07-09T11:37:44.608Z,65.17
2018-07-09T11:38:46.000Z,63.73
2018-07-09T11:39:47.434Z,63.43
2018-07-09T11:40:48.788Z,63.63
2018-07-09T11:41:50.192Z,63.66
2018-07-09T11:42:51.589Z,63.53
2018-07-09T11:43:52.985Z,63.15
2018-07-09T11:44:54.380Z,63.43
2018-07-09T11:45:55.769Z,63.63
2018-07-09T11:46:57.168Z,63.73
2018-07-09T11:47:58.557Z,63.73
2018-07-09T11:48:59.957Z,64.50
2018-07-09T11:50:01.342Z,64.18
2018-07-09T11:51:02.740Z,64.47
2018-07-09T11:52:04.204Z,63.89
2018-07-09T11:53:05.540Z,64.28
2018-07-09T11:54:06.942Z,64.50
2018-07-09T11:55:08.341Z,63.85
2018-07-09T11:56:09.749Z,61.82
2018-07-09T11:57:11.142Z,59.30
2018-07-09T11:58:12.540Z,55.67
2018-07-09T11:59:13.944Z,53.78
2018-07-09T12:00:15.337Z,53.49
2018-07-09T12:01:16.733Z,51.18
2018-07-09T12:02:18.139Z,49.76
2018-07-09T12:03:19.544Z,48.93
2018-07-09T12:04:20.951Z,47.49
2018-07-09T12:05:22.342Z,45.57
2018-07-09T12:06:23.741Z,44.30
2018-07-09T12:07:25.143Z,44.30
2018-07-09T12:08:26.552Z,44.18
2018-07-09T12:09:27.954Z,45.35
2018-07-09T12:10:29.347Z,45.42
2018-07-09T12:11:30.779Z,46.47
2018-07-09T12:12:32.145Z,47.42
2018-07-09T12:13:33.551Z,48.18
2018-07-09T12:14:34.948Z,49.34
2018-07-09T12:15:36.337Z,49.07
2018-07-09T12:16:37.750Z,48.75
2018-07-09T12:17:39.146Z,48.18
2018-07-09T12:18:40.544Z,48.75
2018-07-09T12:19:41.937Z,47.52
2018-07-09T12:20:43.338Z,46.67
2018-07-09T12:21:44.767Z,46.50
2018-07-09T12:22:46.101Z,45.52
2018-07-09T12:23:47.500Z,45.42
2018-07-09T12:24:48.904Z,45.04
2018-07-09T12:25:50.304Z,44.72
2018-07-09T12:26:51.711Z,45.09
2018-07-09T12:27:53.099Z,45.92
2018-07-09T12:28:55.407Z,46.89
2018-07-09T12:29:56.809Z,46.69
2018-07-09T12:30:58.196Z,46.89
2018-07-09T12:31:59.604Z,46.89
2018-07-09T12:33:01.007Z,46.79
2018-07-09T12:34:02.411Z,47.11
2018-07-09T12:35:03.795Z,46.69
2018-07-09T12:36:05.209Z,47.08
2018-07-09T12:37:06.591Z,47.38
2018-07-09T12:38:07.999Z,48.03
2018-07-09T12:39:09.395Z,48.59
2018-07-09T12:40:10.799Z,48.97
2018-07-09T12:41:12.218Z,49.85
2018-07-09T12:42:13.615Z,49.73
2018-07-09T12:43:15.014Z,50.31
2018-07-09T12:44:16.402Z,50.87
2018-07-09T12:45:17.804Z,50.67
2018-07-09T12:46:19.205Z,50.67
2018-07-09T12:47:20.600Z,50.57
2018-07-09T12:48:21.997Z,51.13
2018-07-09T12:49:23.396Z,51.13
2018-07-09T12:50:24.792Z,51.16
2018-07-09T12:51:26.190Z,51.25
2018-07-09T12:52:27.586Z,51.54
2018-07-09T12:53:28.983Z,51.06
2018-07-09T12:54:30.384Z,51.16
2018-07-09T12:55:31.777Z,51.06
2018-07-09T12:56:33.184Z,50.87
2018-07-09T12:57:34.578Z,51.35
2018-07-09T12:58:35.980Z,51.74
2018-07-09T12:59:37.411Z,52.32
2018-07-09T13:00:38.783Z,52.32
2018-07-09T13:01:40.192Z,53.19
2018-07-09T13:02:41.596Z,53.39
2018-07-09T13:03:43.001Z,53.19
2018-07-09T13:04:44.385Z,53.29
2018-07-09T13:05:45.794Z,53.39
2018-07-09T13:06:47.185Z,52.51
2018-07-09T13:07:48.581Z,51.84
2018-07-09T13:08:49.980Z,51.64
2018-07-09T13:09:51.371Z,51.13
2018-07-09T13:10:52.774Z,51.52
2018-07-09T13:11:54.157Z,51.32